Time;durP1;ratioP1;P1;durP2;ratioP2;P2;SDS_P1;SDS_P2;PMS_P1;PMS_P2;Temp;Humidity;BMP_temperature;BMP_pressure;BME280_temperature;BME280_humidity;BME280_pressure;Samples;Min_cycle;Max_cycle;Signal;HPM_P1;HPM_P2
2023/05/18 00:01:43;;;;;;;11.20;2.72;;;;;;;;;;5041147;28;20741;-62
2023/05/18 00:04:08;;;;;;;9.65;2.67;;;;;;;;;;5039748;28;20207;-62
2023/05/18 00:06:34;;;;;;;13.35;3.03;;;;;;;;;;5029844;28;20231;-62
2023/05/18 00:08:59;;;;;;;12.05;2.95;;;;;;;;;;5013753;28;20611;-62
2023/05/18 00:11:24;;;;;;;11.00;3.25;;;;;;;;;;5013270;28;20737;-62
2023/05/18 00:13:50;;;;;;;10.27;3.47;;;;;;;;;;5021074;28;20265;-62
2023/05/18 00:16:15;;;;;;;12.95;3.45;;;;;;;;;;5036327;28;20219;-63
2023/05/18 00:18:40;;;;;;;9.18;2.97;;;;;;;;;;5021122;28;20243;-62
2023/05/18 00:21:07;;;;;;;9.30;3.25;;;;;;;;;;5020983;28;20215;-61
2023/05/18 00:23:33;;;;;;;8.10;2.80;;;;;;;;;;5040173;28;20605;-61
2023/05/18 00:25:58;;;;;;;11.30;3.40;;;;;;;;;;5040863;28;20207;-61
2023/05/18 00:28:24;;;;;;;8.90;2.70;;;;;;;;;;5019624;28;20223;-61
2023/05/18 00:30:49;;;;;;;13.13;3.13;;;;;;;;;;5026565;28;20733;-62
2023/05/18 00:33:14;;;;;;;15.25;3.08;;;;;;;;;;5032463;28;20302;-62
2023/05/18 00:35:40;;;;;;;10.65;2.80;;;;;;;;;;5037491;28;20208;-62
2023/05/18 00:38:05;;;;;;;8.75;3.25;;;;;;;;;;5039373;28;20564;-62
2023/05/18 00:40:31;;;;;;;10.80;3.22;;;;;;;;;;5040212;28;20570;-62
2023/05/18 00:42:56;;;;;;;11.00;2.92;;;;;;;;;;5040430;28;20701;-62
2023/05/18 00:45:21;;;;;;;8.18;3.28;;;;;;;;;;5039654;28;20260;-62
2023/05/18 00:47:47;;;;;;;11.60;3.00;;;;;;;;;;5036610;28;20258;-62
2023/05/18 00:50:12;;;;;;;10.73;3.30;;;;;;;;;;5018290;28;20328;-61
2023/05/18 00:52:37;;;;;;;10.82;2.85;;;;;;;;;;5030960;28;20249;-62
2023/05/18 00:55:04;;;;;;;10.00;2.75;;;;;;;;;;5032567;28;20297;-62
2023/05/18 00:57:29;;;;;;;10.93;3.30;;;;;;;;;;5034729;28;20570;-62
2023/05/18 00:59:55;;;;;;;9.93;2.90;;;;;;;;;;5039748;28;20211;-62
2023/05/18 01:02:20;;;;;;;11.57;3.60;;;;;;;;;;5039013;28;20293;-62
2023/05/18 01:04:45;;;;;;;13.00;3.33;;;;;;;;;;5039706;28;20219;-62
2023/05/18 01:07:11;;;;;;;9.70;3.25;;;;;;;;;;5029865;28;20250;-61
2023/05/18 01:09:37;;;;;;;11.25;3.17;;;;;;;;;;5020568;28;20211;-62
2023/05/18 01:12:05;;;;;;;10.90;3.78;;;;;;;;;;5020333;28;20243;-61
2023/05/18 01:14:44;;;;;;;10.50;3.05;;;;;;;;;;5025479;28;20732;-62
2023/05/18 01:17:16;;;;;;;9.18;3.05;;;;;;;;;;5012969;28;20211;-62
2023/05/18 01:19:45;;;;;;;11.27;3.35;;;;;;;;;;5016291;28;20214;-62
2023/05/18 01:22:16;;;;;;;14.25;3.67;;;;;;;;;;5039676;28;20219;-61
2023/05/18 01:24:42;;;;;;;11.05;2.85;;;;;;;;;;5039114;28;20215;-62
2023/05/18 01:27:07;;;;;;;11.50;3.50;;;;;;;;;;5038986;28;20242;-61
2023/05/18 01:29:32;;;;;;;9.90;3.00;;;;;;;;;;5041865;28;20207;-61
2023/05/18 01:31:57;;;;;;;13.52;3.45;;;;;;;;;;5042761;28;20669;-61
2023/05/18 01:34:23;;;;;;;12.00;3.03;;;;;;;;;;5042807;28;20222;-61
2023/05/18 01:36:48;;;;;;;9.48;3.60;;;;;;;;;;5038442;28;20203;-62
2023/05/18 01:39:13;;;;;;;8.23;2.90;;;;;;;;;;5036281;28;20215;-61
2023/05/18 01:41:40;;;;;;;12.88;3.35;;;;;;;;;;5036019;28;20215;-61
2023/05/18 01:44:11;;;;;;;11.80;3.42;;;;;;;;;;5037412;28;20566;-61
2023/05/18 01:46:49;;;;;;;10.45;3.05;;;;;;;;;;5043357;28;20669;-61
2023/05/18 01:49:16;;;;;;;10.63;3.10;;;;;;;;;;5022981;28;20718;-63
2023/05/18 01:51:43;;;;;;;9.63;3.47;;;;;;;;;;5043495;28;21127;-61
2023/05/18 01:54:08;;;;;;;11.65;3.20;;;;;;;;;;5042894;28;20211;-61
2023/05/18 01:56:34;;;;;;;11.88;3.50;;;;;;;;;;5042046;28;20304;-61
2023/05/18 01:59:00;;;;;;;10.32;3.13;;;;;;;;;;5039687;28;20222;-62
2023/05/18 02:01:25;;;;;;;8.77;3.10;;;;;;;;;;5033870;28;20831;-61
2023/05/18 02:03:50;;;;;;;9.07;3.40;;;;;;;;;;5035391;28;20211;-62
2023/05/18 02:06:15;;;;;;;12.52;3.70;;;;;;;;;;5037312;28;20297;-61
2023/05/18 02:08:41;;;;;;;11.10;3.35;;;;;;;;;;5023914;28;20246;-62
2023/05/18 02:11:06;;;;;;;12.20;3.45;;;;;;;;;;5022357;28;20216;-61
2023/05/18 02:13:31;;;;;;;8.23;3.10;;;;;;;;;;5024025;28;20208;-62
2023/05/18 02:15:57;;;;;;;11.45;3.95;;;;;;;;;;5023400;28;20203;-62
2023/05/18 02:18:22;;;;;;;10.45;3.30;;;;;;;;;;5023289;28;20647;-61
2023/05/18 02:20:48;;;;;;;12.98;4.00;;;;;;;;;;5040529;28;20223;-62
2023/05/18 02:23:13;;;;;;;12.00;3.50;;;;;;;;;;5035465;28;20235;-62
2023/05/18 02:25:39;;;;;;;8.20;3.50;;;;;;;;;;5032838;28;20774;-61
2023/05/18 02:28:04;;;;;;;11.43;3.45;;;;;;;;;;5017434;28;20278;-61
2023/05/18 02:30:32;;;;;;;12.73;3.80;;;;;;;;;;5023067;28;20573;-61
2023/05/18 02:32:57;;;;;;;11.38;3.70;;;;;;;;;;5042270;28;20215;-62
2023/05/18 02:35:22;;;;;;;9.88;3.65;;;;;;;;;;5042842;28;20756;-61
2023/05/18 02:37:48;;;;;;;13.18;3.80;;;;;;;;;;5042104;28;20257;-61
2023/05/18 02:40:14;;;;;;;11.07;3.40;;;;;;;;;;5041871;28;20219;-61
2023/05/18 02:42:40;;;;;;;13.52;4.20;;;;;;;;;;5042952;28;20298;-61
2023/05/18 02:45:06;;;;;;;8.70;3.63;;;;;;;;;;5021828;28;20701;-61
2023/05/18 02:47:31;;;;;;;8.05;3.42;;;;;;;;;;5034700;28;20227;-62
2023/05/18 02:49:56;;;;;;;7.82;3.25;;;;;;;;;;5035201;28;20839;-62
2023/05/18 02:52:21;;;;;;;10.23;3.58;;;;;;;;;;5047456;28;20257;-62
2023/05/18 02:54:47;;;;;;;10.18;3.63;;;;;;;;;;5051891;28;20265;-62
2023/05/18 02:57:12;;;;;;;11.68;3.70;;;;;;;;;;5051777;28;20745;-61
2023/05/18 02:59:38;;;;;;;11.48;3.78;;;;;;;;;;5051599;28;20203;-61
2023/05/18 03:02:03;;;;;;;8.55;3.13;;;;;;;;;;5051932;28;20301;-61
2023/05/18 03:04:28;;;;;;;12.07;3.50;;;;;;;;;;5051849;28;20306;-61
2023/05/18 03:06:56;;;;;;;11.43;3.92;;;;;;;;;;5043842;28;20321;-61
2023/05/18 03:09:21;;;;;;;10.30;3.83;;;;;;;;;;5031910;28;20242;-61
2023/05/18 03:11:47;;;;;;;8.98;3.40;;;;;;;;;;5032088;28;20282;-61
2023/05/18 03:14:12;;;;;;;12.35;3.80;;;;;;;;;;5035309;28;20219;-62
2023/05/18 03:16:38;;;;;;;9.90;3.60;;;;;;;;;;5052206;28;20233;-62
2023/05/18 03:19:03;;;;;;;11.35;3.85;;;;;;;;;;5050942;28;20219;-61
2023/05/18 03:21:32;;;;;;;11.38;3.75;;;;;;;;;;5051474;28;20250;-61
2023/05/18 03:23:58;;;;;;;12.18;3.70;;;;;;;;;;5051964;28;20203;-61
2023/05/18 03:26:24;;;;;;;12.63;3.75;;;;;;;;;;5050662;28;20265;-61
2023/05/18 03:28:50;;;;;;;12.45;3.45;;;;;;;;;;5034861;28;20223;-62
2023/05/18 03:31:15;;;;;;;15.50;3.58;;;;;;;;;;5021859;28;20288;-61
2023/05/18 03:33:40;;;;;;;10.38;3.70;;;;;;;;;;5021676;28;20222;-61
2023/05/18 03:36:06;;;;;;;10.60;4.00;;;;;;;;;;5040922;28;20824;-61
2023/05/18 03:38:31;;;;;;;11.98;3.83;;;;;;;;;;5041836;28;20211;-61
2023/05/18 03:40:56;;;;;;;10.75;4.18;;;;;;;;;;5040348;28;20689;-61
2023/05/18 03:43:24;;;;;;;10.00;3.40;;;;;;;;;;5038529;28;20219;-61
2023/05/18 03:45:50;;;;;;;14.15;4.22;;;;;;;;;;5034660;28;20306;-61
2023/05/18 03:48:15;;;;;;;11.40;3.85;;;;;;;;;;5032569;28;20222;-62
2023/05/18 03:50:40;;;;;;;12.30;3.72;;;;;;;;;;5036925;28;20230;-61
2023/05/18 03:53:05;;;;;;;10.50;3.55;;;;;;;;;;5034260;28;20212;-61
2023/05/18 03:55:31;;;;;;;14.02;4.40;;;;;;;;;;5021639;28;20215;-61
2023/05/18 03:57:57;;;;;;;11.15;3.78;;;;;;;;;;5021777;28;20861;-61
2023/05/18 04:00:23;;;;;;;13.50;4.10;;;;;;;;;;5040933;28;20207;-61
2023/05/18 04:02:50;;;;;;;12.18;3.85;;;;;;;;;;5040556;28;20265;-62
2023/05/18 04:05:15;;;;;;;11.70;3.92;;;;;;;;;;5040033;28;20290;-61
2023/05/18 04:07:47;;;;;;;11.50;3.72;;;;;;;;;;5020343;28;20238;-61
2023/05/18 04:10:12;;;;;;;15.52;4.00;;;;;;;;;;5031578;28;20317;-61
2023/05/18 04:12:37;;;;;;;12.38;3.70;;;;;;;;;;5034071;28;20215;-61
2023/05/18 04:15:03;;;;;;;14.93;4.07;;;;;;;;;;5030186;28;20702;-61
2023/05/18 04:17:28;;;;;;;9.35;3.42;;;;;;;;;;5027072;28;20274;-61
2023/05/18 04:19:54;;;;;;;13.52;3.70;;;;;;;;;;5021671;28;20219;-61
2023/05/18 04:22:20;;;;;;;12.73;3.93;;;;;;;;;;5020870;28;20305;-61
2023/05/18 04:24:46;;;;;;;8.02;4.00;;;;;;;;;;5020823;28;20211;-61
2023/05/18 04:27:12;;;;;;;10.02;3.75;;;;;;;;;;5021219;28;20216;-61
2023/05/18 04:29:38;;;;;;;12.13;3.70;;;;;;;;;;5015124;28;20282;-61
2023/05/18 04:32:06;;;;;;;10.25;3.33;;;;;;;;;;5013423;28;20212;-61
2023/05/18 04:34:33;;;;;;;10.20;3.47;;;;;;;;;;5033534;28;20218;-61
2023/05/18 04:36:59;;;;;;;11.48;3.70;;;;;;;;;;5038576;28;20739;-61
2023/05/18 04:39:24;;;;;;;6.90;3.00;;;;;;;;;;5040175;28;20306;-61
2023/05/18 04:41:56;;;;;;;13.57;3.80;;;;;;;;;;5040892;28;20210;-61
2023/05/18 04:44:23;;;;;;;12.90;3.30;;;;;;;;;;5039618;28;20214;-61
2023/05/18 04:46:49;;;;;;;9.43;3.27;;;;;;;;;;5040480;28;20219;-61
2023/05/18 04:49:14;;;;;;;11.80;3.67;;;;;;;;;;5039748;28;20595;-61
2023/05/18 04:51:40;;;;;;;12.07;3.35;;;;;;;;;;5036396;28;20219;-60
2023/05/18 04:54:07;;;;;;;12.73;3.80;;;;;;;;;;5018500;28;20231;-60
2023/05/18 04:56:33;;;;;;;11.57;3.30;;;;;;;;;;5032410;28;20661;-61
2023/05/18 04:58:58;;;;;;;8.07;2.63;;;;;;;;;;5035980;28;20219;-61
2023/05/18 05:01:23;;;;;;;12.85;3.50;;;;;;;;;;5026512;28;20696;-61
2023/05/18 05:03:49;;;;;;;11.35;3.25;;;;;;;;;;5020618;28;20218;-61
2023/05/18 05:06:14;;;;;;;10.52;3.10;;;;;;;;;;5016560;28;20223;-61
2023/05/18 05:08:40;;;;;;;10.00;3.17;;;;;;;;;;5013506;28;20330;-62
2023/05/18 05:11:05;;;;;;;10.15;3.00;;;;;;;;;;5012692;28;20246;-62
2023/05/18 05:13:30;;;;;;;12.68;3.22;;;;;;;;;;5017893;28;20218;-61
2023/05/18 05:15:56;;;;;;;12.13;3.80;;;;;;;;;;5020183;28;20412;-61
2023/05/18 05:18:21;;;;;;;11.82;3.33;;;;;;;;;;5020200;28;20350;-61
2023/05/18 05:20:47;;;;;;;8.73;2.92;;;;;;;;;;5020202;28;20203;-60
2023/05/18 05:23:12;;;;;;;14.88;3.42;;;;;;;;;;5038243;28;20685;-61
2023/05/18 05:25:37;;;;;;;12.60;3.50;;;;;;;;;;5038680;28;20420;-61
2023/05/18 05:28:03;;;;;;;11.57;3.05;;;;;;;;;;5030349;28;20251;-60
2023/05/18 05:30:28;;;;;;;12.77;3.30;;;;;;;;;;5013267;28;20273;-61
2023/05/18 05:32:53;;;;;;;11.00;3.58;;;;;;;;;;5013170;28;20208;-60
2023/05/18 05:35:18;;;;;;;13.30;3.38;;;;;;;;;;5015065;28;20719;-60
2023/05/18 05:37:44;;;;;;;19.13;3.78;;;;;;;;;;5020779;28;20304;-60
2023/05/18 05:40:09;;;;;;;11.75;3.38;;;;;;;;;;5018923;28;20207;-60
2023/05/18 05:42:34;;;;;;;12.48;3.17;;;;;;;;;;5020654;28;20612;-61
2023/05/18 05:45:00;;;;;;;13.23;3.38;;;;;;;;;;5037943;28;20218;-60
2023/05/18 05:47:26;;;;;;;12.13;3.22;;;;;;;;;;5039143;28;20227;-62
2023/05/18 05:49:52;;;;;;;9.93;3.20;;;;;;;;;;5034637;28;20287;-62
2023/05/18 05:52:17;;;;;;;12.18;3.50;;;;;;;;;;5013205;28;20228;-60
2023/05/18 05:54:42;;;;;;;10.90;3.75;;;;;;;;;;5013968;28;20224;-61
2023/05/18 05:57:08;;;;;;;12.43;3.35;;;;;;;;;;5012800;28;20793;-61
2023/05/18 05:59:33;;;;;;;12.70;4.07;;;;;;;;;;5019760;28;20301;-60
2023/05/18 06:01:58;;;;;;;12.00;2.72;;;;;;;;;;5039019;28;20215;-61
2023/05/18 06:04:23;;;;;;;14.32;3.38;;;;;;;;;;5039702;28;20222;-60
2023/05/18 06:06:49;;;;;;;10.65;3.28;;;;;;;;;;5032473;28;20219;-60
2023/05/18 06:09:14;;;;;;;12.00;3.15;;;;;;;;;;5019577;28;20220;-60
2023/05/18 06:11:40;;;;;;;9.10;3.55;;;;;;;;;;5039308;28;20294;-60
2023/05/18 06:14:05;;;;;;;9.70;2.80;;;;;;;;;;5060291;28;20263;-60
2023/05/18 06:16:30;;;;;;;11.38;3.25;;;;;;;;;;5061429;28;20210;-61
2023/05/18 06:18:56;;;;;;;11.13;3.03;;;;;;;;;;5052774;28;20219;-60
2023/05/18 06:21:21;;;;;;;13.10;3.38;;;;;;;;;;5057325;28;20214;-61
2023/05/18 06:23:46;;;;;;;11.98;3.10;;;;;;;;;;5060634;28;20202;-61
2023/05/18 06:26:12;;;;;;;14.43;3.60;;;;;;;;;;5062167;28;20264;-60
2023/05/18 06:28:37;;;;;;;11.88;2.42;;;;;;;;;;5055106;28;20226;-60
2023/05/18 06:31:02;;;;;;;14.50;2.88;;;;;;;;;;5067226;28;20683;-61
2023/05/18 06:33:28;;;;;;;13.90;3.10;;;;;;;;;;5053074;28;20261;-60
2023/05/18 06:35:53;;;;;;;11.15;2.65;;;;;;;;;;5052578;28;20199;-61
2023/05/18 06:38:18;;;;;;;12.07;3.00;;;;;;;;;;5052005;28;20242;-61
2023/05/18 06:40:44;;;;;;;11.75;3.17;;;;;;;;;;5052653;28;20278;-61
2023/05/18 06:43:09;;;;;;;14.15;3.03;;;;;;;;;;5055202;28;20219;-61
2023/05/18 06:45:34;;;;;;;13.57;3.53;;;;;;;;;;5061733;28;20203;-61
2023/05/18 06:48:00;;;;;;;10.65;2.45;;;;;;;;;;5063035;28;20243;-61
2023/05/18 06:50:25;;;;;;;14.05;3.00;;;;;;;;;;5062805;28;21045;-61
2023/05/18 06:52:50;;;;;;;12.68;2.95;;;;;;;;;;5072795;28;20213;-61
2023/05/18 06:55:16;;;;;;;12.00;2.78;;;;;;;;;;5071927;28;20673;-61
2023/05/18 06:57:41;;;;;;;10.15;2.50;;;;;;;;;;5071886;28;20210;-61
2023/05/18 07:00:09;;;;;;;11.52;2.50;;;;;;;;;;5071794;28;20313;-60
2023/05/18 07:02:34;;;;;;;10.88;2.60;;;;;;;;;;5072225;28;20206;-61
2023/05/18 07:05:00;;;;;;;12.45;3.00;;;;;;;;;;5071863;28;20332;-61
2023/05/18 07:07:25;;;;;;;13.07;2.90;;;;;;;;;;5051875;28;20230;-61
2023/05/18 07:09:51;;;;;;;11.82;2.90;;;;;;;;;;5051873;28;20298;-61
2023/05/18 07:12:16;;;;;;;9.85;2.67;;;;;;;;;;5050874;28;20709;-61
2023/05/18 07:14:41;;;;;;;14.30;2.45;;;;;;;;;;5060118;28;20210;-61
2023/05/18 07:17:07;;;;;;;13.57;2.90;;;;;;;;;;5056185;28;20256;-60
2023/05/18 07:19:33;;;;;;;11.95;2.83;;;;;;;;;;5052171;28;20686;-61
2023/05/18 07:21:59;;;;;;;16.40;3.13;;;;;;;;;;5054153;28;20534;-61
2023/05/18 07:24:24;;;;;;;11.80;2.67;;;;;;;;;;5063669;28;20211;-61
2023/05/18 07:26:49;;;;;;;12.40;3.08;;;;;;;;;;5071301;28;20237;-62
2023/05/18 07:29:15;;;;;;;11.70;3.40;;;;;;;;;;5071247;28;20229;-61
2023/05/18 07:31:40;;;;;;;18.17;3.10;;;;;;;;;;5071142;28;20207;-61
2023/05/18 07:34:06;;;;;;;15.48;3.10;;;;;;;;;;5067726;28;20682;-61
2023/05/18 07:36:31;;;;;;;13.52;3.20;;;;;;;;;;5060610;28;20249;-62
2023/05/18 07:38:57;;;;;;;12.23;2.95;;;;;;;;;;5051525;28;20692;-62
2023/05/18 07:41:23;;;;;;;9.52;2.70;;;;;;;;;;5051185;28;20281;-62
2023/05/18 07:43:49;;;;;;;13.40;3.45;;;;;;;;;;5058283;28;20300;-62
2023/05/18 07:46:15;;;;;;;11.43;2.88;;;;;;;;;;5050217;28;20219;-61
2023/05/18 07:48:40;;;;;;;10.98;3.13;;;;;;;;;;5061180;28;20629;-62
2023/05/18 07:51:06;;;;;;;11.82;2.78;;;;;;;;;;5059401;28;20686;-62
2023/05/18 07:53:31;;;;;;;12.05;3.17;;;;;;;;;;5060786;28;20225;-61
2023/05/18 07:55:56;;;;;;;19.05;2.90;;;;;;;;;;5058499;28;20298;-62
2023/05/18 07:58:22;;;;;;;13.75;3.00;;;;;;;;;;5058533;28;20211;-62
2023/05/18 08:00:47;;;;;;;11.35;2.83;;;;;;;;;;5061003;28;20206;-64
2023/05/18 08:03:12;;;;;;;10.20;3.15;;;;;;;;;;5059941;28;20207;-62
2023/05/18 08:05:38;;;;;;;10.82;2.90;;;;;;;;;;5060090;28;20626;-62
2023/05/18 08:08:03;;;;;;;13.25;3.30;;;;;;;;;;5060801;28;20215;-61
2023/05/18 08:10:28;;;;;;;14.18;2.83;;;;;;;;;;5059655;28;20199;-62
2023/05/18 08:12:54;;;;;;;13.63;3.05;;;;;;;;;;5060690;28;20579;-62
2023/05/18 08:15:19;;;;;;;11.85;3.03;;;;;;;;;;5057571;28;20229;-61
2023/05/18 08:17:46;;;;;;;11.07;2.85;;;;;;;;;;5060700;28;20214;-62
2023/05/18 08:20:11;;;;;;;8.90;2.72;;;;;;;;;;5060307;28;20623;-62
2023/05/18 08:22:36;;;;;;;13.15;3.40;;;;;;;;;;5058161;28;20206;-62
2023/05/18 08:25:02;;;;;;;9.35;2.40;;;;;;;;;;5060934;28;20206;-61
2023/05/18 08:27:28;;;;;;;11.95;3.08;;;;;;;;;;5056239;28;20215;-62
2023/05/18 08:29:53;;;;;;;10.43;2.95;;;;;;;;;;5059601;28;20194;-62
2023/05/18 08:32:18;;;;;;;13.50;3.00;;;;;;;;;;5060107;28;20222;-62
2023/05/18 08:34:44;;;;;;;11.02;2.60;;;;;;;;;;5058867;28;20215;-62
2023/05/18 08:37:09;;;;;;;9.73;2.75;;;;;;;;;;5059683;28;20237;-62
2023/05/18 08:39:36;;;;;;;12.23;2.92;;;;;;;;;;5059879;28;20198;-62
2023/05/18 08:42:02;;;;;;;12.48;3.00;;;;;;;;;;5059291;28;20210;-59
2023/05/18 08:44:29;;;;;;;11.60;3.17;;;;;;;;;;5060179;28;20305;-60
2023/05/18 08:46:56;;;;;;;15.65;3.58;;;;;;;;;;5062388;28;20244;-59
2023/05/18 08:49:21;;;;;;;13.65;3.20;;;;;;;;;;5058744;28;20245;-59
2023/05/18 08:51:48;;;;;;;10.27;2.85;;;;;;;;;;5063499;28;20260;-59
2023/05/18 08:54:14;;;;;;;12.57;3.20;;;;;;;;;;5070080;28;20844;-61
2023/05/18 08:56:40;;;;;;;12.02;3.00;;;;;;;;;;5070290;28;20241;-61
2023/05/18 08:59:07;;;;;;;12.27;3.10;;;;;;;;;;5067956;28;20242;-60
2023/05/18 09:01:32;;;;;;;10.98;3.10;;;;;;;;;;5068543;28;20574;-61
2023/05/18 09:03:57;;;;;;;11.00;3.17;;;;;;;;;;5069766;28;20199;-60
2023/05/18 09:06:23;;;;;;;10.63;3.20;;;;;;;;;;5069813;28;20555;-60
2023/05/18 09:08:49;;;;;;;14.85;3.50;;;;;;;;;;5069959;28;20215;-60
2023/05/18 09:11:14;;;;;;;12.38;3.17;;;;;;;;;;5067960;28;20214;-60
2023/05/18 09:13:39;;;;;;;10.75;3.20;;;;;;;;;;5068998;28;20217;-61
2023/05/18 09:16:06;;;;;;;14.15;3.50;;;;;;;;;;5048246;28;20233;-60
2023/05/18 09:18:32;;;;;;;13.52;3.08;;;;;;;;;;5049477;28;20219;-61
2023/05/18 09:20:57;;;;;;;13.38;3.40;;;;;;;;;;5049808;28;20567;-61
2023/05/18 09:23:22;;;;;;;10.73;2.58;;;;;;;;;;5050591;28;20215;-62
2023/05/18 09:25:48;;;;;;;12.38;3.55;;;;;;;;;;5055266;28;20230;-61
2023/05/18 09:28:24;;;;;;;11.68;3.03;;;;;;;;;;5052250;28;20268;-62
2023/05/18 09:30:52;;;;;;;7.05;3.05;;;;;;;;;;5050249;28;20292;-61
2023/05/18 09:33:17;;;;;;;11.77;2.80;;;;;;;;;;5057501;28;20677;-61
2023/05/18 09:35:43;;;;;;;9.25;3.10;;;;;;;;;;5064152;28;20221;-60
2023/05/18 09:38:09;;;;;;;11.95;2.88;;;;;;;;;;5063501;28;20218;-61
2023/05/18 09:40:35;;;;;;;11.40;2.95;;;;;;;;;;5058644;28;20210;-60
2023/05/18 09:43:05;;;;;;;8.82;3.13;;;;;;;;;;5055209;28;20210;-60
2023/05/18 09:45:30;;;;;;;11.25;3.40;;;;;;;;;;5049358;28;20199;-61
2023/05/18 09:47:56;;;;;;;13.82;3.15;;;;;;;;;;5049303;28;20573;-61
2023/05/18 09:50:21;;;;;;;11.10;2.70;;;;;;;;;;5051742;28;20207;-61
2023/05/18 09:52:48;;;;;;;12.07;3.27;;;;;;;;;;5052431;28;20449;-62
2023/05/18 09:55:14;;;;;;;10.10;2.90;;;;;;;;;;5052704;28;20431;-61
2023/05/18 09:57:40;;;;;;;10.35;3.13;;;;;;;;;;5053335;28;20635;-62
2023/05/18 10:00:09;;;;;;;10.07;3.00;;;;;;;;;;5051364;28;20207;-61
2023/05/18 10:02:36;;;;;;;9.73;3.05;;;;;;;;;;5053415;28;20206;-62
2023/05/18 10:05:02;;;;;;;12.82;2.97;;;;;;;;;;5060419;28;20211;-63
2023/05/18 10:07:27;;;;;;;12.00;3.30;;;;;;;;;;5070823;28;20222;-63
2023/05/18 10:09:59;;;;;;;11.90;2.72;;;;;;;;;;5073454;28;20659;-63
2023/05/18 10:12:24;;;;;;;10.18;3.00;;;;;;;;;;5072634;28;20206;-65
2023/05/18 10:14:49;;;;;;;13.95;3.38;;;;;;;;;;5062383;28;20753;-67
2023/05/18 10:17:15;;;;;;;12.00;3.33;;;;;;;;;;5052406;28;20269;-65
2023/05/18 10:19:41;;;;;;;8.18;2.90;;;;;;;;;;5052901;28;20195;-66
2023/05/18 10:22:06;;;;;;;10.60;3.22;;;;;;;;;;5051902;28;20880;-65
2023/05/18 10:24:33;;;;;;;8.82;3.38;;;;;;;;;;5053083;28;20214;-65
2023/05/18 10:26:59;;;;;;;16.90;5.63;;;;;;;;;;5052862;28;20776;-65
2023/05/18 10:29:24;;;;;;;11.77;3.33;;;;;;;;;;5050650;28;20226;-66
2023/05/18 10:31:50;;;;;;;10.52;3.03;;;;;;;;;;5052923;28;20211;-65
2023/05/18 10:34:17;;;;;;;10.70;2.97;;;;;;;;;;5051050;28;20238;-65
2023/05/18 10:36:42;;;;;;;10.10;2.90;;;;;;;;;;5051138;28;20265;-68
2023/05/18 10:39:07;;;;;;;10.98;3.25;;;;;;;;;;5052356;28;20342;-69
2023/05/18 10:41:33;;;;;;;12.30;3.10;;;;;;;;;;5052766;28;20215;-65
2023/05/18 10:44:02;;;;;;;11.90;2.97;;;;;;;;;;5052201;28;20637;-67
2023/05/18 10:46:28;;;;;;;15.45;3.30;;;;;;;;;;5053676;28;20688;-65
2023/05/18 10:48:53;;;;;;;15.98;3.38;;;;;;;;;;5058889;28;20224;-67
2023/05/18 10:51:18;;;;;;;11.85;3.28;;;;;;;;;;5059393;28;20207;-67
2023/05/18 10:53:46;;;;;;;10.10;3.03;;;;;;;;;;5066474;28;20986;-67
2023/05/18 10:56:11;;;;;;;11.77;3.50;;;;;;;;;;5071301;28;20223;-66
2023/05/18 10:58:37;;;;;;;9.75;3.30;;;;;;;;;;5072132;28;20205;-66
2023/05/18 11:01:03;;;;;;;11.38;3.05;;;;;;;;;;5071572;28;20215;-67
2023/05/18 11:03:28;;;;;;;8.63;2.92;;;;;;;;;;5071807;28;20207;-68
2023/05/18 11:06:07;;;;;;;11.50;2.80;;;;;;;;;;5071127;28;20287;-67
2023/05/18 11:08:32;;;;;;;11.48;4.40;;;;;;;;;;5071788;28;20214;-67
2023/05/18 11:10:58;;;;;;;11.27;3.45;;;;;;;;;;5070608;28;20213;-67
2023/05/18 11:13:26;;;;;;;12.55;4.13;;;;;;;;;;5071898;28;20729;-67
2023/05/18 11:15:52;;;;;;;10.50;3.28;;;;;;;;;;5052979;28;20209;-67
2023/05/18 11:18:17;;;;;;;9.73;3.30;;;;;;;;;;5050843;28;20317;-67
2023/05/18 11:20:44;;;;;;;10.05;3.22;;;;;;;;;;5052110;28;20203;-67
2023/05/18 11:23:09;;;;;;;9.02;3.05;;;;;;;;;;5032581;28;20208;-68
2023/05/18 11:25:36;;;;;;;11.30;3.20;;;;;;;;;;5031757;28;20798;-67
2023/05/18 11:28:03;;;;;;;12.85;3.30;;;;;;;;;;5031728;28;20220;-66
2023/05/18 11:30:28;;;;;;;10.85;3.08;;;;;;;;;;5031695;28;20671;-67
2023/05/18 11:33:16;;;;;;;10.15;3.05;;;;;;;;;;5031368;28;20250;-68
2023/05/18 11:35:54;;;;;;;11.02;3.00;;;;;;;;;;5031552;28;20292;-67
2023/05/18 11:38:20;;;;;;;10.25;3.00;;;;;;;;;;5031544;28;20303;-67
2023/05/18 11:40:46;;;;;;;10.77;2.80;;;;;;;;;;5031202;28;20653;-67
2023/05/18 11:43:20;;;;;;;12.13;3.40;;;;;;;;;;5031162;28;20212;-67
2023/05/18 11:45:53;;;;;;;10.13;3.35;;;;;;;;;;5031150;28;20208;-67
2023/05/18 11:48:24;;;;;;;11.50;3.80;;;;;;;;;;5036206;28;20227;-67
2023/05/18 11:50:53;;;;;;;10.10;3.28;;;;;;;;;;5051278;28;20199;-67
2023/05/18 11:53:19;;;;;;;11.57;3.30;;;;;;;;;;5050411;28;20242;-67
2023/05/18 11:55:45;;;;;;;9.35;3.25;;;;;;;;;;5050552;28;20238;-68
2023/05/18 11:58:13;;;;;;;8.45;3.05;;;;;;;;;;5049681;28;20550;-68
2023/05/18 12:00:38;;;;;;;10.55;3.30;;;;;;;;;;5050906;28;20219;-68
2023/05/18 12:03:04;;;;;;;9.98;3.58;;;;;;;;;;5049552;28;20250;-67
2023/05/18 12:05:30;;;;;;;7.78;3.28;;;;;;;;;;5049508;28;20658;-67
2023/05/18 12:07:55;;;;;;;13.55;3.10;;;;;;;;;;5049123;28;20218;-67
2023/05/18 12:10:21;;;;;;;10.55;3.67;;;;;;;;;;5050796;28;20239;-67
2023/05/18 12:12:46;;;;;;;10.48;3.58;;;;;;;;;;5050320;28;20211;-68
2023/05/18 12:15:12;;;;;;;14.43;3.40;;;;;;;;;;5050221;28;20210;-67
2023/05/18 12:17:39;;;;;;;12.88;3.35;;;;;;;;;;5050938;28;20215;-67
2023/05/18 12:20:05;;;;;;;11.85;3.55;;;;;;;;;;5030329;28;20207;-66
2023/05/18 12:22:30;;;;;;;14.98;4.97;;;;;;;;;;5042697;28;20610;-67
2023/05/18 12:24:55;;;;;;;8.55;3.15;;;;;;;;;;5050535;28;20488;-68
2023/05/18 12:27:21;;;;;;;9.32;3.70;;;;;;;;;;5050338;28;20217;-68
2023/05/18 12:29:47;;;;;;;11.18;3.65;;;;;;;;;;5050431;28;20207;-68
2023/05/18 12:32:13;;;;;;;11.80;3.78;;;;;;;;;;5050047;28;20238;-67
2023/05/18 12:34:38;;;;;;;14.18;4.22;;;;;;;;;;5050802;28;20543;-68
2023/05/18 12:37:04;;;;;;;13.30;3.50;;;;;;;;;;5049706;28;20248;-67
2023/05/18 12:39:30;;;;;;;14.10;3.83;;;;;;;;;;5049024;28;20215;-67
2023/05/18 12:42:08;;;;;;;12.52;3.67;;;;;;;;;;5050061;28;20207;-67
2023/05/18 12:44:33;;;;;;;9.45;4.05;;;;;;;;;;5050428;28;20203;-67
2023/05/18 12:46:59;;;;;;;11.02;3.55;;;;;;;;;;5050101;28;20214;-68
2023/05/18 12:49:24;;;;;;;10.00;3.80;;;;;;;;;;5049672;28;20210;-67
2023/05/18 12:51:53;;;;;;;8.77;3.83;;;;;;;;;;5050202;28;20693;-67
2023/05/18 12:54:26;;;;;;;9.20;3.33;;;;;;;;;;5049872;28;20211;-67
2023/05/18 12:56:51;;;;;;;10.10;3.85;;;;;;;;;;5049882;28;20230;-68
2023/05/18 12:59:18;;;;;;;10.25;4.10;;;;;;;;;;5050078;28;20231;-68
2023/05/18 13:01:43;;;;;;;8.93;3.33;;;;;;;;;;5050163;28;20210;-68
2023/05/18 13:04:09;;;;;;;10.57;3.83;;;;;;;;;;5049454;28;20221;-67
2023/05/18 13:06:36;;;;;;;9.13;3.75;;;;;;;;;;5050172;28;20294;-68
2023/05/18 13:09:01;;;;;;;10.90;3.40;;;;;;;;;;5049478;28;20303;-66
2023/05/18 13:11:26;;;;;;;10.20;3.60;;;;;;;;;;5049750;28;20290;-68
2023/05/18 13:13:57;;;;;;;10.77;3.30;;;;;;;;;;5050352;28;20206;-67
2023/05/18 13:16:23;;;;;;;10.07;3.70;;;;;;;;;;5049509;28;20264;-67
2023/05/18 13:18:54;;;;;;;7.75;3.33;;;;;;;;;;5049343;28;20231;-68
2023/05/18 13:21:20;;;;;;;10.52;3.50;;;;;;;;;;5049229;28;20210;-67
2023/05/18 13:23:45;;;;;;;9.35;3.70;;;;;;;;;;5051645;28;20203;-67
2023/05/18 13:26:10;;;;;;;9.00;4.00;;;;;;;;;;5053304;28;20214;-67
2023/05/18 13:28:36;;;;;;;11.25;4.28;;;;;;;;;;5053924;28;20226;-67
2023/05/18 13:31:01;;;;;;;12.00;3.67;;;;;;;;;;5052097;28;20222;-67
2023/05/18 13:33:27;;;;;;;9.77;3.65;;;;;;;;;;5053960;28;20268;-67
2023/05/18 13:35:52;;;;;;;11.85;3.75;;;;;;;;;;5053833;28;20218;-67
2023/05/18 13:38:17;;;;;;;11.13;4.00;;;;;;;;;;5053108;28;20238;-68
2023/05/18 13:40:44;;;;;;;11.38;4.05;;;;;;;;;;5053992;28;20211;-68
2023/05/18 13:43:09;;;;;;;10.27;3.50;;;;;;;;;;5053245;28;20215;-67
2023/05/18 13:45:35;;;;;;;11.88;3.83;;;;;;;;;;5053567;28;20842;-67
2023/05/18 13:48:00;;;;;;;11.27;3.60;;;;;;;;;;5053802;28;20599;-68
2023/05/18 13:50:25;;;;;;;12.98;4.38;;;;;;;;;;5053423;28;20606;-68
2023/05/18 13:52:51;;;;;;;13.23;3.88;;;;;;;;;;5051763;28;20211;-67
2023/05/18 13:55:16;;;;;;;9.18;3.67;;;;;;;;;;5053211;28;20298;-67
2023/05/18 13:57:42;;;;;;;9.45;3.53;;;;;;;;;;5046469;28;20230;-67
2023/05/18 14:00:11;;;;;;;11.20;4.05;;;;;;;;;;5029552;28;20618;-67
2023/05/18 14:02:37;;;;;;;9.73;4.10;;;;;;;;;;5026871;28;20652;-67
2023/05/18 14:05:03;;;;;;;8.63;4.13;;;;;;;;;;5041012;28;20238;-67
2023/05/18 14:07:28;;;;;;;10.18;3.75;;;;;;;;;;5035981;28;20749;-67
2023/05/18 14:09:53;;;;;;;11.95;4.32;;;;;;;;;;5040511;28;20217;-67
2023/05/18 14:12:19;;;;;;;10.18;4.20;;;;;;;;;;5046667;28;20215;-67
2023/05/18 14:14:44;;;;;;;11.20;4.88;;;;;;;;;;5039798;28;20203;-67
2023/05/18 14:17:09;;;;;;;9.23;4.72;;;;;;;;;;5037031;28;20222;-67
2023/05/18 14:19:35;;;;;;;10.30;4.70;;;;;;;;;;5028197;28;20235;-67
2023/05/18 14:22:00;;;;;;;8.77;4.63;;;;;;;;;;5021442;28;20299;-68
2023/05/18 14:24:25;;;;;;;11.32;5.03;;;;;;;;;;5020229;28;20203;-67
2023/05/18 14:26:52;;;;;;;12.50;4.53;;;;;;;;;;5021363;28;20372;-68